createdAt,value
2022-11-12T00:00:12.339Z,6.97
2022-11-12T00:03:05.491Z,6.99
2022-11-12T00:05:53.336Z,6.84
2022-11-12T00:08:40.461Z,6.78
2022-11-12T00:11:28.223Z,6.74
2022-11-12T00:14:14.621Z,6.74
2022-11-12T00:17:01.487Z,6.73
2022-11-12T00:19:49.171Z,6.71
2022-11-12T00:22:35.908Z,6.53
2022-11-12T00:25:22.654Z,6.74
2022-11-12T00:28:12.066Z,6.67
2022-11-12T00:30:58.635Z,6.71
2022-11-12T00:33:45.577Z,6.60
2022-11-12T00:36:32.093Z,6.58
2022-11-12T00:39:18.746Z,6.46
2022-11-12T00:42:09.174Z,6.60
2022-11-12T00:44:57.142Z,6.62
2022-11-12T00:47:43.738Z,6.58
2022-11-12T00:50:30.347Z,6.61
2022-11-12T00:53:17.297Z,6.60
2022-11-12T00:56:07.673Z,6.53
2022-11-12T00:58:59.983Z,6.49
2022-11-12T01:01:47.618Z,6.42
2022-11-12T01:04:34.550Z,6.41
2022-11-12T01:07:21.351Z,6.44
2022-11-12T01:10:09.185Z,6.43
2022-11-12T01:13:04.583Z,6.47
2022-11-12T01:15:51.340Z,6.48
2022-11-12T01:18:39.504Z,6.37
2022-11-12T01:21:28.322Z,6.38
2022-11-12T01:24:14.758Z,6.39
2022-11-12T01:27:01.362Z,6.32
2022-11-12T01:29:49.046Z,6.36
2022-11-12T01:32:37.436Z,6.27
2022-11-12T01:35:25.618Z,6.33
2022-11-12T01:38:12.355Z,6.39
2022-11-12T01:40:58.976Z,6.32
2022-11-12T01:44:04.739Z,6.36
2022-11-12T01:47:01.433Z,6.21
2022-11-12T01:49:56.983Z,6.16
2022-11-12T01:52:49.758Z,6.21
2022-11-12T01:55:38.602Z,6.20
2022-11-12T01:58:30.333Z,6.29
2022-11-12T02:01:17.007Z,6.31
2022-11-12T02:04:03.956Z,6.22
2022-11-12T02:06:52.980Z,6.18
2022-11-12T02:09:41.051Z,6.18
2022-11-12T02:12:45.507Z,6.22
2022-11-12T02:15:32.323Z,6.27
2022-11-12T02:18:18.722Z,6.26
2022-11-12T02:21:08.906Z,6.25
2022-11-12T02:24:01.712Z,6.19
2022-11-12T02:26:52.051Z,6.23
2022-11-12T02:29:46.238Z,6.24
2022-11-12T02:32:33.554Z,6.22
2022-11-12T02:35:19.904Z,6.17
2022-11-12T02:38:07.729Z,6.16
2022-11-12T02:40:55.483Z,6.18
2022-11-12T02:43:42.657Z,6.11
2022-11-12T02:46:29.196Z,6.02
2022-11-12T02:49:15.848Z,6.02
2022-11-12T02:52:08.543Z,6.13
2022-11-12T02:54:55.052Z,6.14
2022-11-12T02:57:43.103Z,5.94
2022-11-12T03:00:29.899Z,5.88
2022-11-12T03:03:16.881Z,5.88
2022-11-12T03:06:04.105Z,5.83
2022-11-12T03:08:50.861Z,5.92
2022-11-12T03:11:37.485Z,6.06
2022-11-12T03:14:28.030Z,6.13
2022-11-12T03:17:14.667Z,6.08
2022-11-12T03:20:01.408Z,6.00
2022-11-12T03:22:57.194Z,5.95
2022-11-12T03:25:43.917Z,5.94
2022-11-12T03:28:30.395Z,5.89
2022-11-12T03:31:18.830Z,5.97
2022-11-12T03:34:05.736Z,5.94
2022-11-12T03:36:52.058Z,5.91
2022-11-12T03:39:38.710Z,5.80
2022-11-12T03:42:25.626Z,5.67
2022-11-12T03:45:15.298Z,5.70
2022-11-12T03:48:03.406Z,5.68
2022-11-12T03:50:50.247Z,5.77
2022-11-12T03:53:36.868Z,5.69
2022-11-12T03:56:23.199Z,5.77
2022-11-12T03:59:10.343Z,5.75
2022-11-12T04:01:56.853Z,5.82
2022-11-12T04:05:02.100Z,5.80
2022-11-12T04:08:16.709Z,5.89
2022-11-12T04:11:04.316Z,5.84
2022-11-12T04:13:51.695Z,5.83
2022-11-12T04:16:56.069Z,5.73
2022-11-12T04:20:01.327Z,5.78
2022-11-12T04:22:48.028Z,5.68
2022-11-12T04:25:57.521Z,5.62
2022-11-12T04:29:04.352Z,5.66
2022-11-12T04:31:50.830Z,5.71
2022-11-12T04:34:37.639Z,5.68
2022-11-12T04:37:27.641Z,5.72
2022-11-12T04:40:44.068Z,5.72
2022-11-12T04:43:48.528Z,5.74
2022-11-12T04:46:36.471Z,5.72
2022-11-12T04:49:23.522Z,5.63
2022-11-12T04:52:10.811Z,5.69
2022-11-12T04:54:59.529Z,5.65
2022-11-12T04:57:46.270Z,5.67
2022-11-12T05:00:33.229Z,5.68
2022-11-12T05:03:25.636Z,5.64
2022-11-12T05:06:25.913Z,5.67
2022-11-12T05:09:12.745Z,5.59
2022-11-12T05:12:01.042Z,5.63
2022-11-12T05:14:47.881Z,5.55
2022-11-12T05:17:34.634Z,5.56
2022-11-12T05:20:21.600Z,5.46
2022-11-12T05:23:08.358Z,5.62
2022-11-12T05:26:05.104Z,5.74
2022-11-12T05:28:53.003Z,5.62
2022-11-12T05:31:39.858Z,5.61
2022-11-12T05:34:26.877Z,5.68
2022-11-12T05:37:14.807Z,5.59
2022-11-12T05:40:01.519Z,5.59
2022-11-12T05:42:49.861Z,5.61
2022-11-12T05:45:37.838Z,5.57
2022-11-12T05:48:24.844Z,5.44
2022-11-12T05:51:14.074Z,5.66
2022-11-12T05:54:02.783Z,5.62
2022-11-12T05:56:55.421Z,5.51
2022-11-12T05:59:42.040Z,5.44
2022-11-12T06:02:32.209Z,5.41
2022-11-12T06:05:19.186Z,5.46
2022-11-12T06:08:07.024Z,5.37
2022-11-12T06:10:55.205Z,5.38
2022-11-12T06:13:41.867Z,5.35
2022-11-12T06:16:28.653Z,5.37
2022-11-12T06:19:16.983Z,5.22
2022-11-12T06:22:03.942Z,5.26
2022-11-12T06:24:50.632Z,5.26
2022-11-12T06:27:53.226Z,5.13
2022-11-12T06:30:39.723Z,5.27
2022-11-12T06:33:26.697Z,5.24
2022-11-12T06:36:16.848Z,5.19
2022-11-12T06:39:03.881Z,5.16
2022-11-12T06:41:50.673Z,5.28
2022-11-12T06:44:37.501Z,5.26
2022-11-12T06:47:25.382Z,5.27
2022-11-12T06:50:12.442Z,5.31
2022-11-12T06:53:03.355Z,5.34
2022-11-12T06:55:49.833Z,5.26
2022-11-12T06:58:37.270Z,5.34
2022-11-12T07:01:24.768Z,5.40
2022-11-12T07:04:11.637Z,5.50
2022-11-12T07:06:58.381Z,5.42
2022-11-12T07:09:46.510Z,5.49
2022-11-12T07:12:33.118Z,5.54
2022-11-12T07:15:29.388Z,5.70
2022-11-12T07:18:16.151Z,5.75
2022-11-12T07:21:15.222Z,5.67
2022-11-12T07:24:06.298Z,5.66
2022-11-12T07:26:54.342Z,5.67
2022-11-12T07:29:48.996Z,5.71
2022-11-12T07:32:41.594Z,5.88
2022-11-12T07:38:55.578Z,5.99
2022-11-12T07:41:46.085Z,6.04
2022-11-12T07:44:34.587Z,5.97
2022-11-12T07:47:21.087Z,6.02
2022-11-12T07:50:10.045Z,6.18
2022-11-12T07:52:59.895Z,6.39
2022-11-12T07:55:54.783Z,6.54
2022-11-12T07:58:41.434Z,6.70
2022-11-12T08:01:33.958Z,7.56
2022-11-12T08:04:26.724Z,8.32
2022-11-12T08:07:15.697Z,8.96
2022-11-12T08:10:05.239Z,8.51
2022-11-12T08:12:51.898Z,8.30
2022-11-12T08:15:38.604Z,8.37
2022-11-12T08:18:27.113Z,8.37
2022-11-12T08:21:18.243Z,8.20
2022-11-12T08:24:07.212Z,8.09
2022-11-12T08:26:53.912Z,8.20
2022-11-12T08:29:40.840Z,8.23
2022-11-12T08:32:27.878Z,8.35
2022-11-12T08:35:16.758Z,8.31
2022-11-12T08:38:06.705Z,8.30
2022-11-12T08:40:53.419Z,8.23
2022-11-12T08:43:41.520Z,8.26
2022-11-12T08:46:28.155Z,8.40
2022-11-12T08:49:14.827Z,8.62
2022-11-12T08:52:10.998Z,8.67
2022-11-12T08:54:58.013Z,8.98
2022-11-12T08:57:56.383Z,9.36
2022-11-12T09:00:45.269Z,9.65
2022-11-12T09:03:32.469Z,10.20
2022-11-12T09:06:19.601Z,10.69
2022-11-12T09:09:17.896Z,10.87
2022-11-12T09:12:13.800Z,11.20
2022-11-12T09:15:35.757Z,11.43
2022-11-12T09:18:14.628Z,11.77
2022-11-12T09:21:40.460Z,11.55
2022-11-12T09:24:38.341Z,11.63
2022-11-12T09:27:30.922Z,11.73
2022-11-12T09:30:21.492Z,11.71
2022-11-12T09:33:12.265Z,11.67
2022-11-12T09:36:02.191Z,11.73
2022-11-12T09:38:49.088Z,11.45
2022-11-12T09:41:41.343Z,11.42
2022-11-12T09:44:31.741Z,11.45
2022-11-12T09:47:30.637Z,11.40
2022-11-12T09:50:27.356Z,11.56
2022-11-12T09:53:26.691Z,11.63
2022-11-12T09:56:14.869Z,11.73
2022-11-12T09:59:05.348Z,11.59
2022-11-12T10:02:29.577Z,11.76
2022-11-12T10:05:32.624Z,11.89
2022-11-12T10:08:36.161Z,12.12
2022-11-12T10:12:08.357Z,12.17
2022-11-12T10:15:50.244Z,12.28
2022-11-12T10:18:52.098Z,12.46
2022-11-12T10:21:47.154Z,12.52
2022-11-12T10:24:39.986Z,12.69
2022-11-12T10:28:05.470Z,12.58
2022-11-12T10:31:13.910Z,12.58
2022-11-12T10:34:28.666Z,12.82
2022-11-12T10:37:25.536Z,12.93
2022-11-12T10:40:57.559Z,12.99
2022-11-12T10:43:58.912Z,13.17
2022-11-12T10:46:59.860Z,13.35
2022-11-12T10:50:13.288Z,13.38
2022-11-12T10:53:25.386Z,13.38
2022-11-12T10:56:31.770Z,13.38
2022-11-12T10:59:26.588Z,13.56
2022-11-12T11:02:24.954Z,13.50
2022-11-12T11:05:34.221Z,13.83
2022-11-12T11:08:38.552Z,13.66
2022-11-12T11:11:30.143Z,13.97
2022-11-12T11:14:49.395Z,13.99
2022-11-12T11:17:48.380Z,13.76
2022-11-12T11:20:48.702Z,13.90
2022-11-12T11:23:52.629Z,13.86
2022-11-12T11:26:58.044Z,13.85
2022-11-12T11:30:06.143Z,13.82
2022-11-12T11:33:32.708Z,14.10
2022-11-12T11:36:34.280Z,14.29
2022-11-12T11:39:29.344Z,14.43
2022-11-12T11:42:31.890Z,14.28
2022-11-12T11:45:24.444Z,14.38
2022-11-12T11:48:21.082Z,14.34
2022-11-12T11:51:25.911Z,14.42
2022-11-12T11:54:32.142Z,14.40
2022-11-12T11:57:23.859Z,14.66
2022-11-12T12:00:18.632Z,14.63
2022-11-12T12:03:21.468Z,14.63
2022-11-12T12:06:22.751Z,14.80
2022-11-12T12:09:28.352Z,15.06
2022-11-12T12:12:27.290Z,15.10
2022-11-12T12:15:39.811Z,15.12
2022-11-12T12:18:39.649Z,15.31
2022-11-12T12:21:41.662Z,15.32
2022-11-12T12:24:33.664Z,15.46
2022-11-12T12:27:24.323Z,15.51
2022-11-12T12:30:21.003Z,15.74
2022-11-12T12:33:32.033Z,15.55
2022-11-12T12:36:28.436Z,15.60
2022-11-12T12:39:18.948Z,15.61
2022-11-12T12:42:10.856Z,15.60
2022-11-12T12:45:02.230Z,15.58
2022-11-12T12:47:49.785Z,15.58
2022-11-12T12:50:39.528Z,15.48
2022-11-12T12:53:35.665Z,15.40
2022-11-12T12:56:46.015Z,15.73
2022-11-12T12:59:35.129Z,15.69
2022-11-12T13:02:24.904Z,15.70
2022-11-12T13:05:25.706Z,15.68
2022-11-12T13:08:15.426Z,15.52
2022-11-12T13:11:03.380Z,15.39
2022-11-12T13:13:50.232Z,15.66
2022-11-12T13:17:08.489Z,15.71
2022-11-12T13:20:49.770Z,15.50
2022-11-12T13:24:11.899Z,15.58
2022-11-12T13:27:00.430Z,15.47
2022-11-12T13:29:50.185Z,15.31
2022-11-12T13:32:43.354Z,15.31
2022-11-12T13:35:37.941Z,15.26
2022-11-12T13:38:30.617Z,15.27
2022-11-12T13:41:44.874Z,15.22
2022-11-12T13:44:36.526Z,15.32
2022-11-12T13:47:24.732Z,15.33
2022-11-12T13:50:17.835Z,15.27
2022-11-12T13:53:09.662Z,15.31
2022-11-12T13:59:28.198Z,15.26
2022-11-12T14:02:22.352Z,15.11
2022-11-12T14:05:16.716Z,15.17
2022-11-12T14:08:34.771Z,15.09
2022-11-12T14:11:35.514Z,15.13
2022-11-12T14:14:49.670Z,15.02
2022-11-12T14:17:45.788Z,14.94
2022-11-12T14:20:37.138Z,15.01
2022-11-12T14:23:30.832Z,14.92
2022-11-12T14:26:37.300Z,14.82
2022-11-12T14:29:35.432Z,14.80
2022-11-12T14:32:24.985Z,14.69
2022-11-12T14:35:28.894Z,14.70
2022-11-12T14:38:20.095Z,14.65
2022-11-12T14:41:11.553Z,14.60
2022-11-12T14:44:12.691Z,14.56
2022-11-12T14:47:56.257Z,14.44
2022-11-12T14:50:50.751Z,14.34
2022-11-12T14:53:46.802Z,14.24
2022-11-12T14:56:44.495Z,14.14
2022-11-12T14:59:34.964Z,14.08
2022-11-12T15:02:37.664Z,14.05
2022-11-12T15:05:47.983Z,14.00
2022-11-12T15:08:53.438Z,13.93
2022-11-12T15:11:46.943Z,13.79
2022-11-12T15:14:37.430Z,13.71
2022-11-12T15:17:37.040Z,13.69
2022-11-12T15:20:34.633Z,13.63
2022-11-12T15:23:23.603Z,13.56
2022-11-12T15:26:17.143Z,13.48
2022-11-12T15:29:16.992Z,13.33
2022-11-12T15:32:25.238Z,13.24
2022-11-12T15:35:35.319Z,13.14
2022-11-12T15:38:27.161Z,13.07
2022-11-12T15:41:27.432Z,12.96
2022-11-12T15:44:14.744Z,13.04
2022-11-12T15:47:01.908Z,12.92
2022-11-12T15:49:53.185Z,12.86
2022-11-12T15:52:40.583Z,12.73
2022-11-12T15:55:53.160Z,12.66
2022-11-12T15:58:41.681Z,12.46
2022-11-12T16:01:28.673Z,12.40
2022-11-12T16:04:17.518Z,12.27
2022-11-12T16:07:06.927Z,12.23
2022-11-12T16:09:56.528Z,12.19
2022-11-12T16:12:43.400Z,12.12
2022-11-12T16:15:31.865Z,11.95
2022-11-12T16:18:18.601Z,11.95
2022-11-12T16:21:06.692Z,11.88
2022-11-12T16:23:53.349Z,11.76
2022-11-12T16:26:40.094Z,11.78
2022-11-12T16:29:26.740Z,11.72
2022-11-12T16:32:15.779Z,11.64
2022-11-12T16:35:02.516Z,11.59
2022-11-12T16:37:50.135Z,11.53
2022-11-12T16:40:52.789Z,11.49
2022-11-12T16:43:39.260Z,11.48
2022-11-12T16:46:29.607Z,11.46
2022-11-12T16:49:23.712Z,11.44
2022-11-12T16:52:11.014Z,11.35
2022-11-12T16:55:03.121Z,11.27
2022-11-12T16:57:54.227Z,11.19
2022-11-12T17:00:42.439Z,11.17
2022-11-12T17:03:29.564Z,11.25
2022-11-12T17:06:18.427Z,11.10
2022-11-12T17:09:06.362Z,11.01
2022-11-12T17:11:55.965Z,10.94
2022-11-12T17:14:42.858Z,10.87
2022-11-12T17:17:29.720Z,10.87
2022-11-12T17:20:21.606Z,10.76
2022-11-12T17:23:09.672Z,10.73
2022-11-12T17:26:06.474Z,10.66
2022-11-12T17:29:00.043Z,10.67
2022-11-12T17:31:50.464Z,10.61
2022-11-12T17:34:39.900Z,10.63
2022-11-12T17:37:26.637Z,10.56
2022-11-12T17:43:21.565Z,10.49
2022-11-12T17:46:14.560Z,10.40
2022-11-12T17:49:01.095Z,10.41
2022-11-12T17:51:48.035Z,10.35
2022-11-12T17:54:35.437Z,10.30
2022-11-12T17:57:23.764Z,10.21
2022-11-12T18:00:12.393Z,10.23
2022-11-12T18:02:59.610Z,10.23
2022-11-12T18:06:22.515Z,10.17
2022-11-12T18:09:14.472Z,10.16
2022-11-12T18:12:01.195Z,10.12
2022-11-12T18:15:08.135Z,10.05
2022-11-12T18:21:13.640Z,9.98
2022-11-12T18:24:00.164Z,9.98
2022-11-12T18:26:47.264Z,9.94
2022-11-12T18:29:33.934Z,9.94
2022-11-12T18:32:22.289Z,9.87
2022-11-12T18:35:10.501Z,9.72
2022-11-12T18:37:57.594Z,9.81
2022-11-12T18:40:44.252Z,9.78
2022-11-12T18:43:30.858Z,9.72
2022-11-12T18:46:17.454Z,9.71
2022-11-12T18:49:05.731Z,9.70
2022-11-12T18:51:52.659Z,9.68
2022-11-12T18:54:39.316Z,9.72
2022-11-12T18:57:26.397Z,9.69
2022-11-12T19:00:14.610Z,9.66
2022-11-12T19:03:01.313Z,9.69
2022-11-12T19:05:49.364Z,9.70
2022-11-12T19:08:37.453Z,9.72
2022-11-12T19:11:24.291Z,9.68
2022-11-12T19:14:11.468Z,9.58
2022-11-12T19:16:58.259Z,9.54
2022-11-12T19:19:44.849Z,9.59
2022-11-12T19:22:33.763Z,9.58
2022-11-12T19:25:20.743Z,9.54
2022-11-12T19:28:07.293Z,9.49
2022-11-12T19:30:54.194Z,9.54
2022-11-12T19:33:41.602Z,9.54
2022-11-12T19:36:28.410Z,9.54
2022-11-12T19:39:16.742Z,9.46
2022-11-12T19:42:03.984Z,9.49
2022-11-12T19:44:51.222Z,9.41
2022-11-12T19:47:38.162Z,9.41
2022-11-12T19:50:25.966Z,9.38
2022-11-12T19:53:13.257Z,9.35
2022-11-12T19:56:10.036Z,9.38
2022-11-12T19:58:59.852Z,9.39
2022-11-12T20:01:56.148Z,9.36
2022-11-12T20:04:43.380Z,9.40
2022-11-12T20:07:30.118Z,9.36
2022-11-12T20:10:18.031Z,9.37
2022-11-12T20:13:07.269Z,9.39
2022-11-12T20:15:54.344Z,9.35
2022-11-12T20:18:50.690Z,9.38
2022-11-12T20:21:38.074Z,9.32
2022-11-12T20:24:24.768Z,9.32
2022-11-12T20:27:11.938Z,9.28
2022-11-12T20:30:00.207Z,9.30
2022-11-12T20:32:46.932Z,9.30
2022-11-12T20:35:36.437Z,9.25
2022-11-12T20:38:23.265Z,9.23
2022-11-12T20:41:17.632Z,9.18
2022-11-12T20:44:04.555Z,9.20
2022-11-12T20:46:53.235Z,9.23
2022-11-12T20:49:39.987Z,9.18
2022-11-12T20:52:27.057Z,9.18
2022-11-12T20:55:13.790Z,9.24
2022-11-12T20:58:01.544Z,9.20
2022-11-12T21:00:48.314Z,9.23
2022-11-12T21:03:39.610Z,9.29
2022-11-12T21:06:35.206Z,9.30
2022-11-12T21:09:21.868Z,9.29
2022-11-12T21:12:23.822Z,9.28
2022-11-12T21:15:11.096Z,9.25
2022-11-12T21:17:57.699Z,9.26
2022-11-12T21:20:46.447Z,9.20
2022-11-12T21:23:34.990Z,9.20
2022-11-12T21:26:23.150Z,9.15
2022-11-12T21:29:10.175Z,9.20
2022-11-12T21:31:56.853Z,9.18
2022-11-12T21:34:43.480Z,9.18
2022-11-12T21:37:31.645Z,9.19
2022-11-12T21:40:18.889Z,9.26
2022-11-12T21:43:07.127Z,9.19
2022-11-12T21:45:53.642Z,9.22
2022-11-12T21:48:40.490Z,9.20
2022-11-12T21:51:29.628Z,9.20
2022-11-12T21:54:17.882Z,9.15
2022-11-12T21:57:04.659Z,9.13
2022-11-12T22:00:26.625Z,9.11
2022-11-12T22:03:13.309Z,9.07
2022-11-12T22:06:03.701Z,9.00
2022-11-12T22:08:52.598Z,8.94
2022-11-12T22:11:49.416Z,8.94
2022-11-12T22:14:36.093Z,8.92
2022-11-12T22:17:22.711Z,8.92
2022-11-12T22:20:10.574Z,8.90
2022-11-12T22:22:57.008Z,8.83
2022-11-12T22:25:43.982Z,8.82
2022-11-12T22:28:32.223Z,8.81
2022-11-12T22:31:21.159Z,8.78
2022-11-12T22:34:08.124Z,8.74
2022-11-12T22:37:05.090Z,8.73
2022-11-12T22:39:51.737Z,8.56
2022-11-12T22:42:38.153Z,8.55
2022-11-12T22:45:38.229Z,8.49
2022-11-12T22:48:25.350Z,8.50
2022-11-12T22:51:16.167Z,8.46
2022-11-12T22:54:05.078Z,8.42
2022-11-12T22:56:51.727Z,8.36
2022-11-12T22:59:38.133Z,8.38
2022-11-12T23:02:32.468Z,8.29
2022-11-12T23:05:19.140Z,8.30
2022-11-12T23:08:06.388Z,8.28
2022-11-12T23:10:53.755Z,8.24
2022-11-12T23:13:40.769Z,8.21
2022-11-12T23:16:30.099Z,8.21
2022-11-12T23:19:18.120Z,8.13
2022-11-12T23:22:07.884Z,8.03
2022-11-12T23:24:55.144Z,8.16
2022-11-12T23:27:42.273Z,8.12
2022-11-12T23:30:28.893Z,8.08
2022-11-12T23:33:15.486Z,8.11
2022-11-12T23:36:11.699Z,8.12
2022-11-12T23:38:59.709Z,8.09
2022-11-12T23:41:46.380Z,8.02
2022-11-12T23:44:33.276Z,7.96
2022-11-12T23:47:20.366Z,7.99
2022-11-12T23:50:07.820Z,7.89
2022-11-12T23:53:05.160Z,7.94
2022-11-12T23:55:52.131Z,7.93
2022-11-12T23:58:58.344Z,7.88
